Ajax, Louisiana
Current Conditions -  °F | °C
As of 10:55 AM on Thursday 27 Nov 2014 (Local Time) from KIER Reporting Station
Clear Clear  
Wind Chill: 54°   Ceiling: Unl
Heat Index: 54°   Visibility: 10mi
Dew Point: 31°   Wind: 8mph
Humidity: 41%   Direction: 20°NNE
Pressure: 30.52"   Gusts: NA
Location:  31.7926°N, 93.4001°W
Report Text: KIER 271655Z AUTO 02007KT 10SM CLR 12/00 A3052 RMK AO2 T01241005
Loading
Personal Weather Stations






























Interactive Weather Map New forecast layout! Learn more

10-Day Weather Forecast

Advertisements
Track Severe Weather on mobile